NAS Sigonella (NSY/LICZ)




Flight Aircraft Arriving
CMB7742 B752
LERT - Naval Station Rota
Spain Rota, Spain
CMB7745 B752
OBBI - Bahrain International Airport
Bahrain Manama, Bahrain
Flight Aircraft Departing
CMB7743 B752
LERT - Naval Station Rota
Spain Rota, Spain
CMB7746 B752
OBBI - Bahrain International Airport
Bahrain Manama, Bahrain
Airport Information
Location: Sigonella, IT
Coordinates: 37.4017 / 14.9224
Elevation:
Time Offset:
Local Time:
UTC Time:
Jet A Price: $/lbs

Current Weather
METAR:
Warning: file_get_contents(https://api.aviationapi.com/v1/weather/metar?apt=LICZ): failed to open stream: HTTP request failed! HTTP/1.1 500 Internal Server Error in /var/www/capitollogistics/lib/skins/urban/hub/aptview.php on line 198
TAF: TAF LICZ 051700Z 0518/0618 VRB05KT 9999 SCT030 SCT070 BECMG 0606/0608 09012KT

Recent Arrivals
Date Flight Type Depart
06/19/2019 CMB843 B752 Naval Station Rota (LERT)
03/07/2019 CMB843 B752 Naval Station Rota (LERT)
Recent Departures
Date Flight Type Arrive
06/26/2019 CMB845 B752 Bahrain International Airport (OBBI)
03/07/2019 CMB845 B752 Bahrain International Airport (OBBI)